createdAt,value
2019-03-28T04:53:19.047Z,24.63
2019-03-28T04:55:49.745Z,28.17
2019-03-28T04:58:21.837Z,18.30
2019-03-28T05:00:53.337Z,15.70
2019-03-28T05:03:25.677Z,15.83
2019-03-28T05:05:56.273Z,13.45
2019-03-28T05:08:26.805Z,13.43
2019-03-28T05:10:57.333Z,12.03
2019-03-28T05:13:27.867Z,11.40
2019-03-28T05:15:58.494Z,11.65
2019-03-28T05:18:29.064Z,11.95
2019-03-28T05:20:59.668Z,17.40
2019-03-28T05:23:30.298Z,11.43
2019-03-28T05:26:00.830Z,11.12
2019-03-28T05:28:31.457Z,11.05
2019-03-28T05:31:01.989Z,11.38
2019-03-28T05:33:32.569Z,10.53
2019-03-28T05:36:04.504Z,9.15
2019-03-28T05:38:35.254Z,12.88
2019-03-28T05:41:05.955Z,9.85
2019-03-28T05:43:36.598Z,8.05
2019-03-28T05:46:07.227Z,11.80
2019-03-28T05:48:37.756Z,10.10
2019-03-28T05:51:08.500Z,11.97
2019-03-28T05:53:38.989Z,13.53
2019-03-28T05:56:09.498Z,17.95
2019-03-28T05:58:40.093Z,12.98
2019-03-28T06:01:10.697Z,9.05
2019-03-28T06:03:41.215Z,10.03
2019-03-28T06:06:11.735Z,8.33
2019-03-28T06:08:42.229Z,13.85
2019-03-28T06:11:12.744Z,8.50
2019-03-28T06:13:43.283Z,10.13
2019-03-28T06:16:13.905Z,12.90
2019-03-28T06:18:44.436Z,9.20
2019-03-28T06:21:14.967Z,11.68
2019-03-28T06:23:45.906Z,10.25
2019-03-28T06:26:16.442Z,13.28
2019-03-28T06:28:47.005Z,16.80
2019-03-28T06:31:17.501Z,12.05
2019-03-28T06:33:48.140Z,15.45
2019-03-28T06:36:18.767Z,17.92
2019-03-28T06:38:50.225Z,10.63
2019-03-28T06:41:20.934Z,18.12
2019-03-28T06:43:51.633Z,15.88
2019-03-28T06:46:22.122Z,9.33
2019-03-28T06:48:52.651Z,13.80
2019-03-28T06:51:23.183Z,15.40
2019-03-28T06:53:56.985Z,13.95
2019-03-28T06:56:26.049Z,8.63
2019-03-28T06:58:56.591Z,16.82
2019-03-28T07:01:27.171Z,13.72
2019-03-28T07:03:57.726Z,16.50
2019-03-28T07:06:28.335Z,9.63
2019-03-28T07:08:58.829Z,13.20
2019-03-28T07:11:29.394Z,38.90
2019-03-28T07:13:59.903Z,20.75
2019-03-28T07:16:30.541Z,12.65
2019-03-28T07:19:01.075Z,12.18
2019-03-28T07:21:31.668Z,10.68
2019-03-28T07:24:02.163Z,9.38
2019-03-28T07:26:32.861Z,10.68
2019-03-28T07:29:03.446Z,15.78
2019-03-28T07:31:35.673Z,14.63
2019-03-28T07:34:06.410Z,16.42
2019-03-28T07:36:37.157Z,24.80
2019-03-28T07:39:07.974Z,13.35
2019-03-28T07:41:38.570Z,13.88
2019-03-28T07:44:09.149Z,15.88
2019-03-28T07:46:39.652Z,8.10
2019-03-28T07:49:10.185Z,9.33
2019-03-28T07:51:40.714Z,14.87
2019-03-28T07:54:11.395Z,9.43
2019-03-28T07:56:41.974Z,17.37
2019-03-28T07:59:12.504Z,12.70
2019-03-28T08:01:43.093Z,11.30
2019-03-28T08:04:13.754Z,9.93
2019-03-28T08:06:50.119Z,13.05
2019-03-28T08:09:17.692Z,46.02
2019-03-28T08:11:48.633Z,11.08
2019-03-28T08:14:19.129Z,15.43
2019-03-28T08:16:49.829Z,10.35
2019-03-28T08:19:20.325Z,10.28
2019-03-28T08:21:50.868Z,13.55
2019-03-28T08:24:21.401Z,13.62
2019-03-28T08:26:52.072Z,12.50
2019-03-28T08:29:22.677Z,12.58
2019-03-28T08:31:54.635Z,7.92
2019-03-28T08:34:25.268Z,7.75
2019-03-28T08:36:55.856Z,10.18
2019-03-28T08:39:26.428Z,11.48
2019-03-28T08:41:57.025Z,11.05
2019-03-28T08:44:27.601Z,15.03
2019-03-28T08:46:58.327Z,11.93
2019-03-28T08:49:30.294Z,9.45
2019-03-28T08:52:01.965Z,7.40
2019-03-28T08:54:32.817Z,7.45
2019-03-28T08:57:03.632Z,11.10
2019-03-28T08:59:34.264Z,17.55
2019-03-28T09:02:05.121Z,33.30
2019-03-28T09:04:35.774Z,12.35
2019-03-28T09:07:06.373Z,7.62
2019-03-28T09:09:36.904Z,9.53
2019-03-28T09:12:08.491Z,11.28
2019-03-28T09:14:39.199Z,7.85
2019-03-28T09:17:09.893Z,9.25
2019-03-28T09:19:40.665Z,8.33
2019-03-28T09:22:11.195Z,6.65
2019-03-28T09:24:41.826Z,6.12
2019-03-28T09:27:12.466Z,5.45
2019-03-28T09:29:43.027Z,5.33
2019-03-28T09:32:13.513Z,6.20
2019-03-28T09:34:44.155Z,27.10
2019-03-28T09:37:14.895Z,6.85
2019-03-28T09:39:46.666Z,8.20
2019-03-28T09:42:17.328Z,22.15
2019-03-28T09:44:48.029Z,11.08
2019-03-28T09:47:18.653Z,12.98
2019-03-28T09:49:50.637Z,16.37
2019-03-28T09:52:21.219Z,6.70
2019-03-28T09:54:51.890Z,23.38
2019-03-28T09:57:22.381Z,32.70
2019-03-28T09:59:52.052Z,8.53
2019-03-28T10:02:22.383Z,7.35
2019-03-28T10:04:52.876Z,10.80
2019-03-28T10:07:23.418Z,7.50
2019-03-28T10:09:54.139Z,6.47
2019-03-28T10:12:24.682Z,17.50
2019-03-28T10:14:55.314Z,5.80
2019-03-28T10:17:26.155Z,18.30
2019-03-28T10:19:56.782Z,6.45
2019-03-28T10:22:28.643Z,18.02
2019-03-28T10:24:59.240Z,9.90
2019-03-28T10:27:29.917Z,23.15
2019-03-28T10:30:00.544Z,190.73
2019-03-28T10:32:32.391Z,113.17
2019-03-28T10:35:03.046Z,11.18
2019-03-28T10:37:33.700Z,17.42
2019-03-28T10:40:07.291Z,34.33
2019-03-28T10:42:38.111Z,5.85
2019-03-28T10:45:08.851Z,9.55
2019-03-28T10:47:39.486Z,4.90
2019-03-28T10:50:10.124Z,4.25
2019-03-28T10:52:40.753Z,7.35
2019-03-28T10:55:11.247Z,7.90
2019-03-28T10:57:41.812Z,3.83
2019-03-28T11:00:23.505Z,5.35
2019-03-28T11:02:44.893Z,3.98
2019-03-28T11:05:16.994Z,3.90
2019-03-28T11:07:47.480Z,8.88
2019-03-28T11:10:18.056Z,3.22
2019-03-28T11:12:48.589Z,3.40
2019-03-28T11:15:19.120Z,4.58
2019-03-28T11:17:49.643Z,4.25
2019-03-28T11:20:20.280Z,4.42
2019-03-28T11:22:52.211Z,5.97
2019-03-28T11:25:25.852Z,5.08
2019-03-28T11:27:56.483Z,7.67
2019-03-28T11:30:27.068Z,4.80
2019-03-28T11:32:57.548Z,3.70
2019-03-28T11:35:28.072Z,3.55
2019-03-28T11:37:58.603Z,3.83
2019-03-28T11:40:29.132Z,3.75
2019-03-28T11:42:59.878Z,5.25
2019-03-28T11:45:30.600Z,4.00
2019-03-28T11:48:01.342Z,4.53
2019-03-28T11:50:31.972Z,4.85
2019-03-28T11:53:02.615Z,4.42
2019-03-28T11:55:33.243Z,3.72
2019-03-28T11:58:03.852Z,13.03
2019-03-28T12:00:34.403Z,5.15
2019-03-28T12:03:04.873Z,3.80
2019-03-28T12:05:35.367Z,4.17
2019-03-28T12:08:05.894Z,4.30
2019-03-28T12:10:36.524Z,4.40
2019-03-28T12:13:07.165Z,2.95
2019-03-28T12:15:37.696Z,3.42
2019-03-28T12:18:08.187Z,5.22
2019-03-28T12:20:38.857Z,4.20
2019-03-28T12:23:09.402Z,4.85
2019-03-28T12:25:39.873Z,3.30
2019-03-28T12:28:11.748Z,3.10
2019-03-28T12:30:42.299Z,2.50
2019-03-28T12:33:12.964Z,2.47
2019-03-28T12:35:43.499Z,2.33
2019-03-28T12:38:14.018Z,3.92
2019-03-28T12:40:44.545Z,3.22
2019-03-28T12:43:15.039Z,4.17
2019-03-28T12:45:45.550Z,2.77
2019-03-28T12:48:18.904Z,3.15
2019-03-28T12:50:58.772Z,4.62
2019-03-28T12:53:21.812Z,8.70
2019-03-28T12:55:52.352Z,3.00
2019-03-28T12:58:23.902Z,3.40
2019-03-28T13:00:54.424Z,3.35
2019-03-28T13:03:24.951Z,3.10
2019-03-28T13:05:55.579Z,3.02
2019-03-28T13:08:26.166Z,3.00
2019-03-28T13:10:57.869Z,2.95
2019-03-28T13:13:29.426Z,7.08
2019-03-28T13:16:00.064Z,4.75
2019-03-28T13:18:30.692Z,5.50
2019-03-28T13:21:12.684Z,4.37
2019-03-28T13:23:33.709Z,9.00
2019-03-28T13:26:04.238Z,8.93
2019-03-28T13:28:34.868Z,4.30
2019-03-28T13:31:05.399Z,9.10
2019-03-28T13:33:36.027Z,9.25
2019-03-28T13:36:06.795Z,4.03
2019-03-28T13:38:38.402Z,3.77
2019-03-28T13:41:08.961Z,6.95
2019-03-28T13:43:39.490Z,4.17
2019-03-28T13:46:10.120Z,4.30
2019-03-28T13:48:40.650Z,3.90
2019-03-28T13:51:11.180Z,5.03
2019-03-28T13:53:41.689Z,4.03
2019-03-28T13:56:12.247Z,3.62
2019-03-28T13:58:42.874Z,5.90
2019-03-28T14:01:13.363Z,4.90
2019-03-28T14:03:44.001Z,7.50
2019-03-28T14:06:14.577Z,4.80
2019-03-28T14:08:45.206Z,4.37
2019-03-28T14:11:15.836Z,4.45
2019-03-28T14:13:47.540Z,7.55
2019-03-28T14:16:18.240Z,3.37
2019-03-28T14:18:48.715Z,4.25
2019-03-28T14:21:19.398Z,5.47
2019-03-28T14:23:49.929Z,6.22
2019-03-28T14:26:20.459Z,7.28
2019-03-28T14:28:51.296Z,5.90
2019-03-28T14:31:21.926Z,6.08
2019-03-28T14:33:52.460Z,7.40
2019-03-28T14:36:25.146Z,6.80
2019-03-28T14:38:55.574Z,7.65
2019-03-28T14:41:26.104Z,4.95
2019-03-28T14:43:56.733Z,4.15
2019-03-28T14:46:27.262Z,4.78
2019-03-28T14:48:57.985Z,12.15
2019-03-28T14:51:28.632Z,7.85
2019-03-28T14:53:59.274Z,7.03
2019-03-28T14:56:29.868Z,8.25
2019-03-28T14:59:01.565Z,8.05
2019-03-28T15:01:32.075Z,4.28
2019-03-28T15:04:02.625Z,4.25
2019-03-28T15:06:33.487Z,5.70
2019-03-28T15:09:07.825Z,6.22
2019-03-28T15:11:38.318Z,13.30
2019-03-28T15:14:08.939Z,13.25
2019-03-28T15:16:39.451Z,11.35
2019-03-28T15:19:11.079Z,16.65
2019-03-28T15:21:41.664Z,5.17
2019-03-28T15:24:12.293Z,9.00
2019-03-28T15:26:42.999Z,8.18
2019-03-28T15:29:13.561Z,8.30
2019-03-28T15:31:44.309Z,11.30
2019-03-28T15:34:14.801Z,13.62
2019-03-28T15:36:45.365Z,18.17
2019-03-28T15:39:15.930Z,9.05
2019-03-28T15:41:46.737Z,8.55
2019-03-28T15:44:17.222Z,11.22
2019-03-28T15:46:47.816Z,8.68
2019-03-28T15:49:18.333Z,13.05
2019-03-28T15:51:49.059Z,12.05
2019-03-28T15:54:19.628Z,6.70
2019-03-28T15:56:50.225Z,6.62
2019-03-28T15:59:20.702Z,4.20
2019-03-28T16:01:51.301Z,4.75
2019-03-28T16:04:24.661Z,7.75
2019-03-28T16:06:54.194Z,7.62
2019-03-28T16:09:26.051Z,6.90
2019-03-28T16:12:02.870Z,6.65
2019-03-28T16:14:30.493Z,3.87
2019-03-28T16:17:01.127Z,17.80
2019-03-28T16:19:31.877Z,7.87
2019-03-28T16:22:04.160Z,9.08
2019-03-28T16:24:34.770Z,15.75
2019-03-28T16:27:05.509Z,9.95
2019-03-28T16:29:36.139Z,12.40
2019-03-28T16:32:06.670Z,10.28
2019-03-28T16:34:37.297Z,13.80
2019-03-28T16:37:07.783Z,17.67
2019-03-28T16:39:38.496Z,12.28
2019-03-28T16:42:09.041Z,19.75
2019-03-28T16:44:40.038Z,20.40
2019-03-28T16:47:10.604Z,15.43
2019-03-28T16:49:41.220Z,7.75
2019-03-28T16:52:11.710Z,11.70
2019-03-28T16:54:42.466Z,11.20
2019-03-28T16:57:13.111Z,14.75
2019-03-28T16:59:43.674Z,20.10
2019-03-28T17:02:14.243Z,19.48
2019-03-28T17:04:45.931Z,18.70
2019-03-28T17:07:16.480Z,14.35
2019-03-28T17:09:46.991Z,31.30
2019-03-28T17:12:17.510Z,23.15
2019-03-28T17:14:48.154Z,21.80
2019-03-28T17:17:18.683Z,28.12
2019-03-28T17:19:49.334Z,66.50
2019-03-28T17:22:19.955Z,82.78
2019-03-28T17:24:50.495Z,85.15
2019-03-28T17:27:21.026Z,71.20
2019-03-28T17:29:51.551Z,51.68
2019-03-28T17:32:22.175Z,41.88
2019-03-28T17:34:53.764Z,56.63
2019-03-28T17:37:24.279Z,74.72
2019-03-28T17:39:54.862Z,54.00
2019-03-28T17:42:25.630Z,63.68
2019-03-28T17:44:56.143Z,55.88
2019-03-28T17:47:26.694Z,55.38
2019-03-28T17:49:57.332Z,56.50
2019-03-28T17:52:28.032Z,30.57
2019-03-28T17:54:58.710Z,31.65
2019-03-28T17:57:29.543Z,58.23
2019-03-28T18:00:00.453Z,118.08
2019-03-28T18:02:32.275Z,144.70
2019-03-28T18:05:09.091Z,307.52
2019-03-28T18:07:35.754Z,157.10
2019-03-28T18:10:06.695Z,66.30
2019-03-28T18:12:37.334Z,108.87
2019-03-28T18:15:08.022Z,77.92
2019-03-28T18:17:38.594Z,85.10
2019-03-28T18:20:09.331Z,81.50
2019-03-28T18:22:40.073Z,68.20
2019-03-28T18:25:10.803Z,58.08
2019-03-28T18:27:41.298Z,65.25
2019-03-28T18:30:12.168Z,69.75
2019-03-28T18:32:42.702Z,57.08
2019-03-28T18:35:13.342Z,65.15
2019-03-28T18:37:44.772Z,60.67
2019-03-28T18:40:15.423Z,69.22
2019-03-28T18:42:45.955Z,45.17
2019-03-28T18:45:16.488Z,42.85
2019-03-28T18:47:47.090Z,124.72
2019-03-28T18:50:17.648Z,216.82
2019-03-28T18:52:48.141Z,160.10
